Time,TemperatureF,DewpointF,PressureIn,WindDirection,WindDirectionDegrees,WindSpeedMPH,WindSpeedGustMPH,Humidity,HourlyPrecipIn,Conditions,Clouds,dailyrainin,SoftwareType,DateUTC
2013-04-20 00:12:00,-999.0,-99.9,30.03,SSW,197,14.0,17.0,-999,-99.99,,,-99.99,,2013-04-20 04:12:00,
2013-04-20 00:23:00,77.0,-99.9,30.04,North,-999,-999.0,-999.0,-999,-99.99,,,-99.99,,2013-04-20 04:23:00,
2013-04-20 00:33:00,-999.0,-99.9,30.04,SSW,212,9.0,13.0,-999,-99.99,,,-99.99,,2013-04-20 04:33:00,
2013-04-20 00:43:00,77.0,-99.9,30.04,North,-999,-999.0,-999.0,-999,-99.99,,,-99.99,,2013-04-20 04:43:00,
2013-04-20 00:53:00,77.0,-99.9,30.04,North,-999,-999.0,-999.0,-999,-99.99,,,-99.99,,2013-04-20 04:53:00,
2013-04-20 01:02:00,-999.0,-99.9,30.04,SW,226,8.0,10.0,-999,-99.99,,,-99.99,,2013-04-20 05:02:00,
2013-04-20 01:12:00,-999.0,-99.9,30.04,SW,214,10.0,12.0,-999,-99.99,,,-99.99,,2013-04-20 05:12:00,
2013-04-20 01:22:00,-999.0,-99.9,30.03,SW,222,11.0,15.0,-999,-99.99,,,-99.99,,2013-04-20 05:22:00,
2013-04-20 01:32:00,77.0,-99.9,30.03,North,-999,-999.0,-999.0,-999,-99.99,,,-99.99,,2013-04-20 05:32:00,
2013-04-20 01:43:00,-999.0,-99.9,30.03,SW,214,10.0,12.0,-999,-99.99,,,-99.99,,2013-04-20 05:43:00,
2013-04-20 01:52:00,77.0,-99.9,30.03,North,-999,-999.0,-999.0,-999,-99.99,,,-99.99,,2013-04-20 05:52:00,
2013-04-20 02:02:00,-999.0,-99.9,30.03,SSW,213,10.0,14.0,-999,-99.99,,,-99.99,,2013-04-20 06:02:00,
2013-04-20 02:22:00,-999.0,-99.9,30.02,SW,220,8.0,12.0,-999,-99.99,,,-99.99,,2013-04-20 06:22:00,
2013-04-20 02:32:00,76.0,-99.9,30.01,North,-999,-999.0,-999.0,-999,-99.99,,,-99.99,,2013-04-20 06:32:00,
2013-04-20 02:42:00,-999.0,-99.9,30.02,SW,230,9.0,13.0,-999,-99.99,,,-99.99,,2013-04-20 06:42:00,
2013-04-20 02:52:00,-999.0,-99.9,30.01,SW,214,6.0,9.0,-999,-99.99,,,-99.99,,2013-04-20 06:52:00,
2013-04-20 03:02:00,76.0,-99.9,30.01,North,-999,-999.0,-999.0,-999,-99.99,,,-99.99,,2013-04-20 07:02:00,
2013-04-20 03:22:00,-999.0,-99.9,30.00,SSW,209,10.0,12.0,-999,-99.99,,,-99.99,,2013-04-20 07:22:00,
2013-04-20 03:32:00,-999.0,-99.9,30.00,SSW,202,8.0,11.0,-999,-99.99,,,-99.99,,2013-04-20 07:32:00,
2013-04-20 03:42:00,-999.0,-99.9,29.99,NNW,337,18.0,23.0,-999,-99.99,,,-99.99,,2013-04-20 07:42:00,
2013-04-20 03:52:00,72.0,-99.9,30.01,North,-999,-999.0,-999.0,-999,-99.99,,,-99.99,,2013-04-20 07:52:00,
2013-04-20 04:02:00,71.0,-99.9,30.01,North,-999,-999.0,-999.0,-999,-99.99,,,-99.99,,2013-04-20 08:02:00,
2013-04-20 04:22:00,-999.0,-99.9,30.02,NW,326,12.0,17.0,-999,-99.99,,,-99.99,,2013-04-20 08:22:00,
2013-04-20 04:32:00,-999.0,-99.9,30.02,NNW,331,9.0,13.0,-999,-99.99,,,-99.99,,2013-04-20 08:32:00,
2013-04-20 04:42:00,70.0,-99.9,30.02,North,-999,-999.0,-999.0,-999,-99.99,,,-99.99,,2013-04-20 08:42:00,
2013-04-20 05:02:00,-999.0,-99.9,30.02,NNW,343,11.0,15.0,-999,-99.99,,,-99.99,,2013-04-20 09:02:00,
2013-04-20 05:12:00,-999.0,-99.9,30.02,NNW,337,9.0,14.0,-999,-99.99,,,-99.99,,2013-04-20 09:12:00,
2013-04-20 05:22:00,70.0,-99.9,30.03,North,-999,-999.0,-999.0,-999,-99.99,,,-99.99,,2013-04-20 09:22:00,
2013-04-20 05:33:00,-999.0,-99.9,30.03,NNW,347,10.0,15.0,-999,-99.99,,,-99.99,,2013-04-20 09:33:00,
2013-04-20 05:43:00,70.0,-99.9,30.03,North,-999,-999.0,-999.0,-999,-99.99,,,-99.99,,2013-04-20 09:43:00,
2013-04-20 05:53:00,-999.0,-99.9,30.02,North,356,13.0,18.0,-999,-99.99,,,-99.99,,2013-04-20 09:53:00,
2013-04-20 06:03:00,-999.0,-99.9,30.03,North,0,11.0,16.0,-999,-99.99,,,-99.99,,2013-04-20 10:03:00,
2013-04-20 06:13:00,-999.0,-99.9,30.03,North,355,8.0,12.0,-999,-99.99,,,-99.99,,2013-04-20 10:13:00,
2013-04-20 06:23:00,-999.0,-99.9,30.02,North,356,8.0,14.0,-999,-99.99,,,-99.99,,2013-04-20 10:23:00,
2013-04-20 06:33:00,-999.0,-99.9,30.02,North,1,7.0,13.0,-999,-99.99,,,-99.99,,2013-04-20 10:33:00,
2013-04-20 06:42:00,-999.0,-99.9,30.03,North,9,9.0,14.0,-999,-99.99,,,-99.99,,2013-04-20 10:42:00,
2013-04-20 06:53:00,-999.0,-99.9,30.03,North,8,12.0,17.0,-999,-99.99,,,-99.99,,2013-04-20 10:53:00,
2013-04-20 07:03:00,-999.0,-99.9,30.03,North,2,8.0,14.0,-999,-99.99,,,-99.99,,2013-04-20 11:03:00,
2013-04-20 07:12:00,-999.0,-99.9,30.03,North,7,12.0,18.0,-999,-99.99,,,-99.99,,2013-04-20 11:12:00,
2013-04-20 07:23:00,-999.0,-99.9,30.03,North,9,8.0,15.0,-999,-99.99,,,-99.99,,2013-04-20 11:23:00,
2013-04-20 07:32:00,-999.0,-99.9,30.03,NNE,12,8.0,11.0,-999,-99.99,,,-99.99,,2013-04-20 11:32:00,
2013-04-20 07:42:00,-999.0,-99.9,30.04,NNE,15,9.0,11.0,-999,-99.99,,,-99.99,,2013-04-20 11:42:00,
2013-04-20 07:53:00,-999.0,-99.9,30.04,NNE,27,9.0,14.0,-999,-99.99,,,-99.99,,2013-04-20 11:53:00,
2013-04-20 08:02:00,-999.0,-99.9,30.05,NNE,22,8.0,15.0,-999,-99.99,,,-99.99,,2013-04-20 12:02:00,
2013-04-20 08:11:00,-999.0,-99.9,30.05,NNE,22,8.0,12.0,-999,-99.99,,,-99.99,,2013-04-20 12:11:00,
2013-04-20 08:23:00,-999.0,-99.9,30.05,North,11,10.0,14.0,-999,-99.99,,,-99.99,,2013-04-20 12:23:00,
2013-04-20 08:32:00,-999.0,-99.9,30.06,North,4,7.0,12.0,-999,-99.99,,,-99.99,,2013-04-20 12:32:00,
2013-04-20 08:42:00,-999.0,-99.9,30.06,North,7,7.0,12.0,-999,-99.99,,,-99.99,,2013-04-20 12:42:00,
2013-04-20 08:52:00,-999.0,-99.9,30.06,NNE,16,9.0,12.0,-999,-99.99,,,-99.99,,2013-04-20 12:52:00,
2013-04-20 09:02:00,-999.0,-99.9,30.07,North,9,8.0,12.0,-999,-99.99,,,-99.99,,2013-04-20 13:02:00,
2013-04-20 09:11:00,-999.0,-99.9,30.07,North,4,10.0,14.0,-999,-99.99,,,-99.99,,2013-04-20 13:11:00,
2013-04-20 09:22:00,-999.0,-99.9,30.08,North,0,8.0,13.0,-999,-99.99,,,-99.99,,2013-04-20 13:22:00,
2013-04-20 09:32:00,-999.0,-99.9,30.08,North,2,9.0,16.0,-999,-99.99,,,-99.99,,2013-04-20 13:32:00,
2013-04-20 09:42:00,-999.0,-99.9,30.09,North,6,10.0,16.0,-999,-99.99,,,-99.99,,2013-04-20 13:42:00,
2013-04-20 09:52:00,-999.0,-99.9,30.09,North,9,8.0,12.0,-999,-99.99,,,-99.99,,2013-04-20 13:52:00,
2013-04-20 10:02:00,-999.0,-99.9,30.09,NNE,15,9.0,15.0,-999,-99.99,,,-99.99,,2013-04-20 14:02:00,
2013-04-20 10:11:00,-999.0,-99.9,30.10,North,9,9.0,17.0,-999,-99.99,,,-99.99,,2013-04-20 14:11:00,
2013-04-20 10:22:00,-999.0,-99.9,30.09,NNE,12,10.0,15.0,-999,-99.99,,,-99.99,,2013-04-20 14:22:00,
2013-04-20 10:32:00,-999.0,-99.9,30.10,NNE,14,12.0,18.0,-999,-99.99,,,-99.99,,2013-04-20 14:32:00,
2013-04-20 10:42:00,-999.0,-99.9,30.11,NNE,23,12.0,16.0,-999,-99.99,,,-99.99,,2013-04-20 14:42:00,
2013-04-20 10:52:00,-999.0,-99.9,30.11,North,0,12.0,16.0,-999,-99.99,,,-99.99,,2013-04-20 14:52:00,
2013-04-20 11:02:00,69.0,-99.9,30.12,North,-999,-999.0,-999.0,-999,-99.99,,,-99.99,,2013-04-20 15:02:00,
2013-04-20 11:12:00,-999.0,-99.9,30.12,NNE,17,10.0,16.0,-999,-99.99,,,-99.99,,2013-04-20 15:12:00,
2013-04-20 11:22:00,68.0,-99.9,30.11,North,-999,-999.0,-999.0,-999,-99.99,,,-99.99,,2013-04-20 15:22:00,
2013-04-20 11:34:00,68.0,-99.9,30.11,North,-999,-999.0,-999.0,-999,-99.99,,,-99.99,,2013-04-20 15:34:00,
2013-04-20 11:43:00,-999.0,-99.9,30.11,NE,36,9.0,15.0,-999,-99.99,,,-99.99,,2013-04-20 15:43:00,
2013-04-20 11:53:00,-999.0,-99.9,30.12,NNE,23,10.0,15.0,-999,-99.99,,,-99.99,,2013-04-20 15:53:00,
2013-04-20 12:12:00,-999.0,-99.9,30.12,NNE,19,9.0,14.0,-999,-99.99,,,-99.99,,2013-04-20 16:12:00,
2013-04-20 12:23:00,69.0,-99.9,30.11,North,-999,-999.0,-999.0,-999,-99.99,,,-99.99,,2013-04-20 16:23:00,
2013-04-20 12:33:00,69.0,-99.9,30.11,North,-999,-999.0,-999.0,-999,-99.99,,,-99.99,,2013-04-20 16:33:00,
2013-04-20 12:53:00,70.0,-99.9,30.12,North,-999,-999.0,-999.0,-999,-99.99,,,-99.99,,2013-04-20 16:53:00,
2013-04-20 13:03:00,-999.0,-99.9,30.12,North,7,10.0,14.0,-999,-99.99,,,-99.99,,2013-04-20 17:03:00,
2013-04-20 13:12:00,-999.0,-99.9,30.11,North,9,8.0,12.0,-999,-99.99,,,-99.99,,2013-04-20 17:12:00,
2013-04-20 13:23:00,70.0,-99.9,30.11,North,-999,-999.0,-999.0,-999,-99.99,,,-99.99,,2013-04-20 17:23:00,
2013-04-20 13:33:00,71.0,-99.9,30.11,North,-999,-999.0,-999.0,-999,-99.99,,,-99.99,,2013-04-20 17:33:00,
2013-04-20 13:42:00,-999.0,-99.9,30.11,North,1,8.0,12.0,-999,-99.99,,,-99.99,,2013-04-20 17:42:00,
2013-04-20 13:52:00,71.0,-99.9,30.11,North,-999,-999.0,-999.0,-999,-99.99,,,-99.99,,2013-04-20 17:52:00,
2013-04-20 14:02:00,-999.0,-99.9,30.10,North,6,6.0,12.0,-999,-99.99,,,-99.99,,2013-04-20 18:02:00,
2013-04-20 14:22:00,-999.0,-99.9,30.10,North,1,6.0,10.0,-999,-99.99,,,-99.99,,2013-04-20 18:22:00,
2013-04-20 14:42:00,72.0,-99.9,30.09,North,-999,-999.0,-999.0,-999,-99.99,,,-99.99,,2013-04-20 18:42:00,
2013-04-20 14:53:00,-999.0,-99.9,30.09,NNE,18,7.0,9.0,-999,-99.99,,,-99.99,,2013-04-20 18:53:00,
2013-04-20 15:02:00,72.0,-99.9,30.08,North,-999,-999.0,-999.0,-999,-99.99,,,-99.99,,2013-04-20 19:02:00,
2013-04-20 15:22:00,72.0,-99.9,30.07,North,-999,-999.0,-999.0,-999,-99.99,,,-99.99,,2013-04-20 19:22:00,
2013-04-20 15:32:00,-999.0,-99.9,30.07,NNE,19,7.0,11.0,-999,-99.99,,,-99.99,,2013-04-20 19:32:00,
2013-04-20 15:42:00,72.0,-99.9,30.07,North,-999,-999.0,-999.0,-999,-99.99,,,-99.99,,2013-04-20 19:42:00,
2013-04-20 15:52:00,-999.0,-99.9,30.07,NNE,17,8.0,11.0,-999,-99.99,,,-99.99,,2013-04-20 19:52:00,
2013-04-20 16:02:00,-999.0,-99.9,30.06,NE,45,5.0,9.0,-999,-99.99,,,-99.99,,2013-04-20 20:02:00,
2013-04-20 16:22:00,73.0,-99.9,30.06,North,-999,-999.0,-999.0,-999,-99.99,,,-99.99,,2013-04-20 20:22:00,
2013-04-20 16:32:00,-999.0,-99.9,30.06,NNE,16,7.0,9.0,-999,-99.99,,,-99.99,,2013-04-20 20:32:00,
2013-04-20 16:42:00,-999.0,-99.9,30.06,NNE,16,6.0,9.0,-999,-99.99,,,-99.99,,2013-04-20 20:42:00,
2013-04-20 16:52:00,72.0,-99.9,30.06,North,-999,-999.0,-999.0,-999,-99.99,,,-99.99,,2013-04-20 20:52:00,
2013-04-20 17:02:00,72.0,-99.9,30.06,North,-999,-999.0,-999.0,-999,-99.99,,,-99.99,,2013-04-20 21:02:00,
2013-04-20 17:12:00,-999.0,-99.9,30.06,North,355,7.0,11.0,-999,-99.99,,,-99.99,,2013-04-20 21:12:00,
2013-04-20 17:22:00,72.0,-99.9,30.06,North,-999,-999.0,-999.0,-999,-99.99,,,-99.99,,2013-04-20 21:22:00,
2013-04-20 17:33:00,-999.0,-99.9,30.06,North,8,9.0,11.0,-999,-99.99,,,-99.99,,2013-04-20 21:33:00,
2013-04-20 17:43:00,71.0,-99.9,30.05,North,-999,-999.0,-999.0,-999,-99.99,,,-99.99,,2013-04-20 21:43:00,
2013-04-20 17:53:00,71.0,-99.9,30.05,North,-999,-999.0,-999.0,-999,-99.99,,,-99.99,,2013-04-20 21:53:00,
2013-04-20 18:13:00,-999.0,-99.9,30.04,NNE,20,9.0,14.0,-999,-99.99,,,-99.99,,2013-04-20 22:13:00,
2013-04-20 18:23:00,71.0,-99.9,30.05,North,-999,-999.0,-999.0,-999,-99.99,,,-99.99,,2013-04-20 22:23:00,
2013-04-20 18:33:00,71.0,-99.9,30.05,North,-999,-999.0,-999.0,-999,-99.99,,,-99.99,,2013-04-20 22:33:00,
2013-04-20 18:42:00,-999.0,-99.9,30.05,North,8,9.0,12.0,-999,-99.99,,,-99.99,,2013-04-20 22:42:00,
2013-04-20 18:53:00,71.0,-99.9,30.06,North,-999,-999.0,-999.0,-999,-99.99,,,-99.99,,2013-04-20 22:53:00,
2013-04-20 19:02:00,-999.0,-99.9,30.06,NNE,14,8.0,12.0,-999,-99.99,,,-99.99,,2013-04-20 23:02:00,
2013-04-20 19:22:00,70.0,-99.9,30.07,North,-999,-999.0,-999.0,-999,-99.99,,,-99.99,,2013-04-20 23:22:00,
2013-04-20 19:32:00,-999.0,-99.9,30.07,North,11,7.0,11.0,-999,-99.99,,,-99.99,,2013-04-20 23:32:00,
2013-04-20 19:42:00,-999.0,-99.9,30.08,North,4,8.0,10.0,-999,-99.99,,,-99.99,,2013-04-20 23:42:00,
2013-04-20 19:53:00,-999.0,-99.9,30.08,North,10,8.0,11.0,-999,-99.99,,,-99.99,,2013-04-20 23:53:00,
2013-04-20 20:01:00,-999.0,-99.9,30.08,NNE,25,9.0,12.0,-999,-99.99,,,-99.99,,2013-04-21 00:01:00,
2013-04-20 20:22:00,-999.0,-99.9,30.08,NNE,22,10.0,13.0,-999,-99.99,,,-99.99,,2013-04-21 00:22:00,
2013-04-20 20:42:00,69.0,-99.9,30.09,North,-999,-999.0,-999.0,-999,-99.99,,,-99.99,,2013-04-21 00:42:00,
2013-04-20 20:52:00,-999.0,-99.9,30.10,NNE,22,8.0,12.0,-999,-99.99,,,-99.99,,2013-04-21 00:52:00,
2013-04-20 21:01:00,68.0,-99.9,30.09,North,-999,-999.0,-999.0,-999,-99.99,,,-99.99,,2013-04-21 01:01:00,
2013-04-20 21:12:00,-999.0,-99.9,30.09,NE,54,7.0,14.0,-999,-99.99,,,-99.99,,2013-04-21 01:12:00,
2013-04-20 21:22:00,68.0,-99.9,30.10,North,-999,-999.0,-999.0,-999,-99.99,,,-99.99,,2013-04-21 01:22:00,
2013-04-20 21:42:00,-999.0,-99.9,30.11,NE,49,6.0,10.0,-999,-99.99,,,-99.99,,2013-04-21 01:42:00,
2013-04-20 21:52:00,67.0,-99.9,30.11,North,-999,-999.0,-999.0,-999,-99.99,,,-99.99,,2013-04-21 01:52:00,
2013-04-20 22:11:00,-999.0,-99.9,30.13,NE,35,8.0,13.0,-999,-99.99,,,-99.99,,2013-04-21 02:11:00,
2013-04-20 22:32:00,67.0,-99.9,30.14,North,-999,-999.0,-999.0,-999,-99.99,,,-99.99,,2013-04-21 02:32:00,
2013-04-20 22:42:00,-999.0,-99.9,30.14,NNE,19,10.0,14.0,-999,-99.99,,,-99.99,,2013-04-21 02:42:00,
2013-04-20 22:52:00,-999.0,-99.9,30.15,NNE,27,9.0,14.0,-999,-99.99,,,-99.99,,2013-04-21 02:52:00,
2013-04-20 23:11:00,-999.0,-99.9,30.16,NNE,20,10.0,14.0,-999,-99.99,,,-99.99,,2013-04-21 03:11:00,
2013-04-20 23:22:00,64.0,-99.9,30.16,North,-999,-999.0,-999.0,-999,-99.99,,,-99.99,,2013-04-21 03:22:00,
2013-04-20 23:33:00,64.0,-99.9,30.17,North,-999,-999.0,-999.0,-999,-99.99,,,-99.99,,2013-04-21 03:33:00,
2013-04-20 23:43:00,64.0,-99.9,30.17,North,-999,-999.0,-999.0,-999,-99.99,,,-99.99,,2013-04-21 03:43:00,
2013-04-20 23:53:00,-999.0,-99.9,30.17,NE,50,11.0,17.0,-999,-99.99,,,-99.99,,2013-04-21 03:53:00,